sensor_id;sensor_type;location;lat;lon;timestamp;temperature;humidity
14357;DHT22;7262;48.764;9.166;2023-02-15T00:01:30;0.90;99.90
14357;DHT22;7262;48.764;9.166;2023-02-15T00:03:57;0.90;99.90
14357;DHT22;7262;48.764;9.166;2023-02-15T00:06:24;0.90;99.90
14357;DHT22;7262;48.764;9.166;2023-02-15T00:08:51;0.90;99.90
14357;DHT22;7262;48.764;9.166;2023-02-15T00:11:18;0.90;99.90
14357;DHT22;7262;48.764;9.166;2023-02-15T00:14:05;0.80;99.90
14357;DHT22;7262;48.764;9.166;2023-02-15T00:16:33;0.80;99.90
14357;DHT22;7262;48.764;9.166;2023-02-15T00:19:00;0.80;99.90
14357;DHT22;7262;48.764;9.166;2023-02-15T00:21:28;0.80;99.90
14357;DHT22;7262;48.764;9.166;2023-02-15T00:23:55;0.80;99.90
14357;DHT22;7262;48.764;9.166;2023-02-15T00:26:22;0.80;99.90
14357;DHT22;7262;48.764;9.166;2023-02-15T00:28:49;0.80;99.90
14357;DHT22;7262;48.764;9.166;2023-02-15T00:31:16;0.80;99.90
14357;DHT22;7262;48.764;9.166;2023-02-15T00:33:44;0.70;99.90
14357;DHT22;7262;48.764;9.166;2023-02-15T00:36:11;0.70;99.90
14357;DHT22;7262;48.764;9.166;2023-02-15T00:38:38;0.70;99.90
14357;DHT22;7262;48.764;9.166;2023-02-15T00:41:06;0.70;99.90
14357;DHT22;7262;48.764;9.166;2023-02-15T00:43:35;0.60;99.90
14357;DHT22;7262;48.764;9.166;2023-02-15T00:46:02;0.60;99.90
14357;DHT22;7262;48.764;9.166;2023-02-15T00:48:29;0.70;99.90
14357;DHT22;7262;48.764;9.166;2023-02-15T00:50:58;0.70;99.90
14357;DHT22;7262;48.764;9.166;2023-02-15T00:53:26;0.70;99.90
14357;DHT22;7262;48.764;9.166;2023-02-15T00:55:53;0.70;99.90
14357;DHT22;7262;48.764;9.166;2023-02-15T00:58:20;0.70;99.90
14357;DHT22;7262;48.764;9.166;2023-02-15T01:00:47;0.70;99.90
14357;DHT22;7262;48.764;9.166;2023-02-15T01:03:15;0.60;99.90
14357;DHT22;7262;48.764;9.166;2023-02-15T01:05:42;0.60;99.90
14357;DHT22;7262;48.764;9.166;2023-02-15T01:08:10;0.60;99.90
14357;DHT22;7262;48.764;9.166;2023-02-15T01:10:37;0.60;99.90
14357;DHT22;7262;48.764;9.166;2023-02-15T01:13:04;0.60;99.90
14357;DHT22;7262;48.764;9.166;2023-02-15T01:15:31;0.60;99.90
14357;DHT22;7262;48.764;9.166;2023-02-15T01:18:00;0.60;99.90
14357;DHT22;7262;48.764;9.166;2023-02-15T01:20:27;0.60;99.90
14357;DHT22;7262;48.764;9.166;2023-02-15T01:22:54;0.60;99.90
14357;DHT22;7262;48.764;9.166;2023-02-15T01:25:23;0.60;99.90
14357;DHT22;7262;48.764;9.166;2023-02-15T01:27:50;0.60;99.90
14357;DHT22;7262;48.764;9.166;2023-02-15T01:30:17;0.60;99.90
14357;DHT22;7262;48.764;9.166;2023-02-15T01:32:44;0.60;99.90
14357;DHT22;7262;48.764;9.166;2023-02-15T01:35:11;0.60;99.90
14357;DHT22;7262;48.764;9.166;2023-02-15T01:37:38;0.50;99.90
14357;DHT22;7262;48.764;9.166;2023-02-15T01:40:06;0.50;99.90
14357;DHT22;7262;48.764;9.166;2023-02-15T01:42:35;0.50;99.90
14357;DHT22;7262;48.764;9.166;2023-02-15T01:45:03;0.50;99.90
14357;DHT22;7262;48.764;9.166;2023-02-15T01:47:32;0.50;99.90
14357;DHT22;7262;48.764;9.166;2023-02-15T01:50:02;0.40;99.90
14357;DHT22;7262;48.764;9.166;2023-02-15T01:52:29;0.40;99.90
14357;DHT22;7262;48.764;9.166;2023-02-15T01:54:57;0.50;99.90
14357;DHT22;7262;48.764;9.166;2023-02-15T01:57:24;0.40;99.90
14357;DHT22;7262;48.764;9.166;2023-02-15T01:59:56;0.50;99.90
14357;DHT22;7262;48.764;9.166;2023-02-15T02:02:23;0.50;99.90
14357;DHT22;7262;48.764;9.166;2023-02-15T02:04:51;0.40;99.90
14357;DHT22;7262;48.764;9.166;2023-02-15T02:07:21;0.40;99.90
14357;DHT22;7262;48.764;9.166;2023-02-15T02:09:49;0.30;99.90
14357;DHT22;7262;48.764;9.166;2023-02-15T02:12:16;0.30;99.90
14357;DHT22;7262;48.764;9.166;2023-02-15T02:14:44;0.30;99.90
14357;DHT22;7262;48.764;9.166;2023-02-15T02:17:14;0.20;99.90
14357;DHT22;7262;48.764;9.166;2023-02-15T02:19:52;0.20;99.90
14357;DHT22;7262;48.764;9.166;2023-02-15T02:22:41;0.20;99.90
14357;DHT22;7262;48.764;9.166;2023-02-15T02:25:21;0.20;99.90
14357;DHT22;7262;48.764;9.166;2023-02-15T02:27:50;0.20;99.90
14357;DHT22;7262;48.764;9.166;2023-02-15T02:30:35;0.20;99.90
14357;DHT22;7262;48.764;9.166;2023-02-15T02:33:10;0.20;99.90
14357;DHT22;7262;48.764;9.166;2023-02-15T02:35:43;0.20;99.90
14357;DHT22;7262;48.764;9.166;2023-02-15T02:38:14;0.10;99.90
14357;DHT22;7262;48.764;9.166;2023-02-15T02:40:47;0.10;99.90
14357;DHT22;7262;48.764;9.166;2023-02-15T02:43:18;0.00;99.90
14357;DHT22;7262;48.764;9.166;2023-02-15T02:45:47;0.00;99.90
14357;DHT22;7262;48.764;9.166;2023-02-15T02:48:19;0.00;99.90
14357;DHT22;7262;48.764;9.166;2023-02-15T02:50:47;0.00;99.90
14357;DHT22;7262;48.764;9.166;2023-02-15T02:53:14;0.10;99.90
14357;DHT22;7262;48.764;9.166;2023-02-15T02:55:41;0.10;99.90
14357;DHT22;7262;48.764;9.166;2023-02-15T02:58:11;0.10;99.90
14357;DHT22;7262;48.764;9.166;2023-02-15T03:00:40;0.00;99.90
14357;DHT22;7262;48.764;9.166;2023-02-15T03:03:08;0.00;99.90
14357;DHT22;7262;48.764;9.166;2023-02-15T03:05:37;0.00;99.90
14357;DHT22;7262;48.764;9.166;2023-02-15T03:08:05;0.10;99.90
14357;DHT22;7262;48.764;9.166;2023-02-15T03:10:35;0.10;99.90
14357;DHT22;7262;48.764;9.166;2023-02-15T03:13:03;0.10;99.90
14357;DHT22;7262;48.764;9.166;2023-02-15T03:15:30;0.10;99.90
14357;DHT22;7262;48.764;9.166;2023-02-15T03:18:18;0.10;99.90
14357;DHT22;7262;48.764;9.166;2023-02-15T03:20:48;0.10;99.90
14357;DHT22;7262;48.764;9.166;2023-02-15T03:23:16;0.10;99.90
14357;DHT22;7262;48.764;9.166;2023-02-15T03:25:45;0.00;99.90
14357;DHT22;7262;48.764;9.166;2023-02-15T03:28:14;0.00;99.90
14357;DHT22;7262;48.764;9.166;2023-02-15T03:30:42;0.00;99.90
14357;DHT22;7262;48.764;9.166;2023-02-15T03:33:10;0.00;99.90
14357;DHT22;7262;48.764;9.166;2023-02-15T03:35:39;-0.10;99.90
14357;DHT22;7262;48.764;9.166;2023-02-15T03:38:08;-0.10;99.90
14357;DHT22;7262;48.764;9.166;2023-02-15T03:40:37;-0.10;99.90
14357;DHT22;7262;48.764;9.166;2023-02-15T03:43:23;-0.10;99.90
14357;DHT22;7262;48.764;9.166;2023-02-15T03:45:55;-0.20;99.90
14357;DHT22;7262;48.764;9.166;2023-02-15T03:48:24;-0.20;99.90
14357;DHT22;7262;48.764;9.166;2023-02-15T03:50:52;-0.20;99.90
14357;DHT22;7262;48.764;9.166;2023-02-15T03:53:38;-0.20;99.90
14357;DHT22;7262;48.764;9.166;2023-02-15T03:56:05;-0.20;99.90
14357;DHT22;7262;48.764;9.166;2023-02-15T03:58:32;-0.20;99.90
14357;DHT22;7262;48.764;9.166;2023-02-15T04:01:17;-0.20;99.90
14357;DHT22;7262;48.764;9.166;2023-02-15T04:04:06;-0.20;99.90
14357;DHT22;7262;48.764;9.166;2023-02-15T04:06:34;-0.20;99.90
14357;DHT22;7262;48.764;9.166;2023-02-15T04:09:02;-0.20;99.90
14357;DHT22;7262;48.764;9.166;2023-02-15T04:11:47;-0.20;99.90
14357;DHT22;7262;48.764;9.166;2023-02-15T04:14:13;-0.20;99.90
14357;DHT22;7262;48.764;9.166;2023-02-15T04:16:57;-0.20;99.90
14357;DHT22;7262;48.764;9.166;2023-02-15T04:19:24;-0.30;99.90
14357;DHT22;7262;48.764;9.166;2023-02-15T04:22:08;-0.30;99.90
14357;DHT22;7262;48.764;9.166;2023-02-15T04:24:54;-0.30;99.90
14357;DHT22;7262;48.764;9.166;2023-02-15T04:27:36;-0.30;99.90
14357;DHT22;7262;48.764;9.166;2023-02-15T04:30:03;-0.40;99.90
14357;DHT22;7262;48.764;9.166;2023-02-15T04:32:29;-0.40;99.90
14357;DHT22;7262;48.764;9.166;2023-02-15T04:34:56;-0.40;99.90
14357;DHT22;7262;48.764;9.166;2023-02-15T04:37:23;-0.40;99.90
14357;DHT22;7262;48.764;9.166;2023-02-15T04:39:49;-0.40;99.90
14357;DHT22;7262;48.764;9.166;2023-02-15T04:42:17;-0.40;99.90
14357;DHT22;7262;48.764;9.166;2023-02-15T04:44:44;-0.40;99.90
14357;DHT22;7262;48.764;9.166;2023-02-15T04:47:11;-0.40;99.90
14357;DHT22;7262;48.764;9.166;2023-02-15T04:49:38;-0.40;99.90
14357;DHT22;7262;48.764;9.166;2023-02-15T04:52:04;-0.40;99.90
14357;DHT22;7262;48.764;9.166;2023-02-15T04:54:31;-0.40;99.90
14357;DHT22;7262;48.764;9.166;2023-02-15T04:56:58;-0.40;99.90
14357;DHT22;7262;48.764;9.166;2023-02-15T04:59:26;-0.40;99.90
14357;DHT22;7262;48.764;9.166;2023-02-15T05:01:53;-0.50;99.90
14357;DHT22;7262;48.764;9.166;2023-02-15T05:04:20;-0.50;99.90
14357;DHT22;7262;48.764;9.166;2023-02-15T05:06:46;-0.50;99.90
14357;DHT22;7262;48.764;9.166;2023-02-15T05:09:14;-0.50;99.90
14357;DHT22;7262;48.764;9.166;2023-02-15T05:11:41;-0.50;99.90
14357;DHT22;7262;48.764;9.166;2023-02-15T05:14:08;-0.50;99.90
14357;DHT22;7262;48.764;9.166;2023-02-15T05:16:36;-0.50;99.90
14357;DHT22;7262;48.764;9.166;2023-02-15T05:19:03;-0.50;99.90
14357;DHT22;7262;48.764;9.166;2023-02-15T05:21:31;-0.50;99.90
14357;DHT22;7262;48.764;9.166;2023-02-15T05:23:58;-0.50;99.90
14357;DHT22;7262;48.764;9.166;2023-02-15T05:26:24;-0.50;99.90
14357;DHT22;7262;48.764;9.166;2023-02-15T05:29:09;-0.50;99.90
14357;DHT22;7262;48.764;9.166;2023-02-15T05:31:38;-0.50;99.90
14357;DHT22;7262;48.764;9.166;2023-02-15T05:34:04;-0.50;99.90
14357;DHT22;7262;48.764;9.166;2023-02-15T05:36:31;-0.60;99.90
14357;DHT22;7262;48.764;9.166;2023-02-15T05:38:58;-0.60;99.90
14357;DHT22;7262;48.764;9.166;2023-02-15T05:41:24;-0.50;99.90
14357;DHT22;7262;48.764;9.166;2023-02-15T05:43:51;-0.40;99.90
14357;DHT22;7262;48.764;9.166;2023-02-15T05:46:19;-0.40;99.90
14357;DHT22;7262;48.764;9.166;2023-02-15T05:48:47;-0.40;99.90
14357;DHT22;7262;48.764;9.166;2023-02-15T05:51:13;-0.40;99.90
14357;DHT22;7262;48.764;9.166;2023-02-15T05:53:41;-0.40;99.90
14357;DHT22;7262;48.764;9.166;2023-02-15T05:56:09;-0.40;99.90
14357;DHT22;7262;48.764;9.166;2023-02-15T05:58:36;-0.40;99.90
14357;DHT22;7262;48.764;9.166;2023-02-15T06:01:07;-0.50;99.90
14357;DHT22;7262;48.764;9.166;2023-02-15T06:03:34;-0.50;99.90
14357;DHT22;7262;48.764;9.166;2023-02-15T06:06:02;-0.50;99.90
14357;DHT22;7262;48.764;9.166;2023-02-15T06:08:29;-0.50;99.90
14357;DHT22;7262;48.764;9.166;2023-02-15T06:10:57;-0.50;99.90
14357;DHT22;7262;48.764;9.166;2023-02-15T06:13:23;-0.60;99.90
14357;DHT22;7262;48.764;9.166;2023-02-15T06:15:50;-0.60;99.90
14357;DHT22;7262;48.764;9.166;2023-02-15T06:18:17;-0.60;99.90
14357;DHT22;7262;48.764;9.166;2023-02-15T06:20:44;-0.60;99.90
14357;DHT22;7262;48.764;9.166;2023-02-15T06:23:13;-0.70;99.90
14357;DHT22;7262;48.764;9.166;2023-02-15T06:25:40;-0.70;99.90
14357;DHT22;7262;48.764;9.166;2023-02-15T06:28:06;-0.70;99.90
14357;DHT22;7262;48.764;9.166;2023-02-15T06:30:40;-0.70;99.90
14357;DHT22;7262;48.764;9.166;2023-02-15T06:33:07;-0.60;99.90
14357;DHT22;7262;48.764;9.166;2023-02-15T06:35:34;-0.60;99.90
14357;DHT22;7262;48.764;9.166;2023-02-15T06:38:01;-0.60;99.90
14357;DHT22;7262;48.764;9.166;2023-02-15T06:40:29;-0.60;99.90
14357;DHT22;7262;48.764;9.166;2023-02-15T06:42:55;-0.60;99.90
14357;DHT22;7262;48.764;9.166;2023-02-15T06:45:22;-0.60;99.90
14357;DHT22;7262;48.764;9.166;2023-02-15T06:47:49;-0.60;99.90
14357;DHT22;7262;48.764;9.166;2023-02-15T06:50:18;-0.50;99.90
14357;DHT22;7262;48.764;9.166;2023-02-15T06:52:45;-0.50;99.90
14357;DHT22;7262;48.764;9.166;2023-02-15T06:55:12;-0.50;99.90
14357;DHT22;7262;48.764;9.166;2023-02-15T06:57:40;-0.50;99.90
14357;DHT22;7262;48.764;9.166;2023-02-15T07:00:07;-0.50;99.90
14357;DHT22;7262;48.764;9.166;2023-02-15T07:02:34;-0.50;99.90
14357;DHT22;7262;48.764;9.166;2023-02-15T07:05:01;-0.50;99.90
14357;DHT22;7262;48.764;9.166;2023-02-15T07:07:30;-0.50;99.90
14357;DHT22;7262;48.764;9.166;2023-02-15T07:09:57;-0.50;99.90
14357;DHT22;7262;48.764;9.166;2023-02-15T07:12:23;-0.50;99.90
14357;DHT22;7262;48.764;9.166;2023-02-15T07:15:09;-0.50;99.90
14357;DHT22;7262;48.764;9.166;2023-02-15T07:17:36;-0.40;99.90
14357;DHT22;7262;48.764;9.166;2023-02-15T07:22:38;-0.30;99.90
14357;DHT22;7262;48.764;9.166;2023-02-15T07:35:36;-0.20;99.90
14357;DHT22;7262;48.764;9.166;2023-02-15T07:38:05;-0.20;99.90
14357;DHT22;7262;48.764;9.166;2023-02-15T07:40:33;-0.20;99.90
14357;DHT22;7262;48.764;9.166;2023-02-15T07:48:11;-0.40;99.90
14357;DHT22;7262;48.764;9.166;2023-02-15T07:50:47;-0.40;99.90
14357;DHT22;7262;48.764;9.166;2023-02-15T07:56:04;-0.30;99.90
14357;DHT22;7262;48.764;9.166;2023-02-15T07:58:31;-0.20;99.90
14357;DHT22;7262;48.764;9.166;2023-02-15T08:01:16;-0.20;99.90
14357;DHT22;7262;48.764;9.166;2023-02-15T08:03:43;-0.10;99.90
14357;DHT22;7262;48.764;9.166;2023-02-15T08:06:11;0.00;99.90
14357;DHT22;7262;48.764;9.166;2023-02-15T08:08:38;0.10;99.90
14357;DHT22;7262;48.764;9.166;2023-02-15T08:11:06;0.20;99.90
14357;DHT22;7262;48.764;9.166;2023-02-15T08:13:55;0.30;99.90
14357;DHT22;7262;48.764;9.166;2023-02-15T08:16:25;0.40;99.90
14357;DHT22;7262;48.764;9.166;2023-02-15T08:18:53;0.60;99.90
14357;DHT22;7262;48.764;9.166;2023-02-15T08:21:21;0.70;99.90
14357;DHT22;7262;48.764;9.166;2023-02-15T08:23:48;0.70;99.90
14357;DHT22;7262;48.764;9.166;2023-02-15T08:26:17;0.80;99.90
14357;DHT22;7262;48.764;9.166;2023-02-15T08:28:50;0.80;99.90
14357;DHT22;7262;48.764;9.166;2023-02-15T08:33:53;1.00;99.90
14357;DHT22;7262;48.764;9.166;2023-02-15T08:36:23;1.00;99.90
14357;DHT22;7262;48.764;9.166;2023-02-15T08:38:51;0.90;99.90
14357;DHT22;7262;48.764;9.166;2023-02-15T08:41:18;1.00;99.90
14357;DHT22;7262;48.764;9.166;2023-02-15T08:43:46;1.00;99.90
14357;DHT22;7262;48.764;9.166;2023-02-15T08:46:13;0.90;99.90
14357;DHT22;7262;48.764;9.166;2023-02-15T08:48:40;1.00;99.90
14357;DHT22;7262;48.764;9.166;2023-02-15T08:51:09;1.00;99.90
14357;DHT22;7262;48.764;9.166;2023-02-15T08:53:39;1.00;99.90
14357;DHT22;7262;48.764;9.166;2023-02-15T08:56:06;1.10;99.90
14357;DHT22;7262;48.764;9.166;2023-02-15T08:58:34;1.00;99.90
14357;DHT22;7262;48.764;9.166;2023-02-15T09:01:00;1.10;99.90
14357;DHT22;7262;48.764;9.166;2023-02-15T09:03:29;1.20;99.90
14357;DHT22;7262;48.764;9.166;2023-02-15T09:05:57;1.20;99.90
14357;DHT22;7262;48.764;9.166;2023-02-15T09:08:26;1.20;99.90
14357;DHT22;7262;48.764;9.166;2023-02-15T09:10:54;1.30;99.90
14357;DHT22;7262;48.764;9.166;2023-02-15T09:13:21;1.50;99.90
14357;DHT22;7262;48.764;9.166;2023-02-15T09:15:48;1.60;99.90
14357;DHT22;7262;48.764;9.166;2023-02-15T09:20:51;1.60;99.90
14357;DHT22;7262;48.764;9.166;2023-02-15T09:31:09;1.90;99.90
14357;DHT22;7262;48.764;9.166;2023-02-15T09:33:36;2.00;99.90
14357;DHT22;7262;48.764;9.166;2023-02-15T09:36:04;2.00;99.90
14357;DHT22;7262;48.764;9.166;2023-02-15T09:41:10;2.20;99.90
14357;DHT22;7262;48.764;9.166;2023-02-15T09:51:41;2.10;99.90
14357;DHT22;7262;48.764;9.166;2023-02-15T09:54:14;2.10;99.90
14357;DHT22;7262;48.764;9.166;2023-02-15T09:56:44;2.00;99.90
14357;DHT22;7262;48.764;9.166;2023-02-15T09:59:15;2.20;99.90
14357;DHT22;7262;48.764;9.166;2023-02-15T10:01:47;2.50;99.90
14357;DHT22;7262;48.764;9.166;2023-02-15T10:04:25;2.70;99.90
14357;DHT22;7262;48.764;9.166;2023-02-15T10:06:59;2.80;99.90
14357;DHT22;7262;48.764;9.166;2023-02-15T10:09:35;2.90;99.90
14357;DHT22;7262;48.764;9.166;2023-02-15T10:12:07;3.10;99.90
14357;DHT22;7262;48.764;9.166;2023-02-15T10:17:29;3.40;99.90
14357;DHT22;7262;48.764;9.166;2023-02-15T10:20:02;3.60;99.90
14357;DHT22;7262;48.764;9.166;2023-02-15T10:22:37;3.80;99.90
14357;DHT22;7262;48.764;9.166;2023-02-15T10:25:08;3.90;99.90
14357;DHT22;7262;48.764;9.166;2023-02-15T10:27:42;4.00;99.90
14357;DHT22;7262;48.764;9.166;2023-02-15T10:30:11;4.00;99.90
14357;DHT22;7262;48.764;9.166;2023-02-15T10:32:39;4.10;99.90
14357;DHT22;7262;48.764;9.166;2023-02-15T10:35:11;3.90;99.90
14357;DHT22;7262;48.764;9.166;2023-02-15T10:40:24;3.90;99.90
14357;DHT22;7262;48.764;9.166;2023-02-15T10:42:58;4.00;99.90
14357;DHT22;7262;48.764;9.166;2023-02-15T10:45:30;4.30;99.90
14357;DHT22;7262;48.764;9.166;2023-02-15T10:48:03;4.40;99.90
14357;DHT22;7262;48.764;9.166;2023-02-15T10:50:35;4.60;99.90
14357;DHT22;7262;48.764;9.166;2023-02-15T10:53:13;4.80;99.90
14357;DHT22;7262;48.764;9.166;2023-02-15T10:55:49;4.90;99.90
14357;DHT22;7262;48.764;9.166;2023-02-15T10:58:23;5.10;99.90
14357;DHT22;7262;48.764;9.166;2023-02-15T11:00:53;5.70;99.90
14357;DHT22;7262;48.764;9.166;2023-02-15T11:03:31;6.50;99.90
14357;DHT22;7262;48.764;9.166;2023-02-15T11:06:01;7.20;99.90
14357;DHT22;7262;48.764;9.166;2023-02-15T11:08:29;8.00;99.90
14357;DHT22;7262;48.764;9.166;2023-02-15T11:10:59;8.60;99.90
14357;DHT22;7262;48.764;9.166;2023-02-15T11:13:31;9.10;99.90
14357;DHT22;7262;48.764;9.166;2023-02-15T11:16:00;9.60;99.90
14357;DHT22;7262;48.764;9.166;2023-02-15T11:18:30;10.00;99.90
14357;DHT22;7262;48.764;9.166;2023-02-15T11:20:59;10.40;99.90
14357;DHT22;7262;48.764;9.166;2023-02-15T11:23:35;10.60;99.90
14357;DHT22;7262;48.764;9.166;2023-02-15T11:26:12;11.00;99.90
14357;DHT22;7262;48.764;9.166;2023-02-15T11:28:40;11.90;99.90
14357;DHT22;7262;48.764;9.166;2023-02-15T11:31:12;12.50;99.90
14357;DHT22;7262;48.764;9.166;2023-02-15T11:33:39;11.80;99.90
14357;DHT22;7262;48.764;9.166;2023-02-15T11:36:11;12.30;99.90
14357;DHT22;7262;48.764;9.166;2023-02-15T11:38:42;12.70;99.90
14357;DHT22;7262;48.764;9.166;2023-02-15T11:41:13;12.60;99.90
14357;DHT22;7262;48.764;9.166;2023-02-15T11:43:43;13.50;99.90
14357;DHT22;7262;48.764;9.166;2023-02-15T11:46:11;14.30;99.90
14357;DHT22;7262;48.764;9.166;2023-02-15T11:48:40;14.20;99.90
14357;DHT22;7262;48.764;9.166;2023-02-15T11:51:08;13.00;99.90
14357;DHT22;7262;48.764;9.166;2023-02-15T11:53:36;12.30;99.90
14357;DHT22;7262;48.764;9.166;2023-02-15T11:56:04;12.20;99.90
14357;DHT22;7262;48.764;9.166;2023-02-15T11:58:35;12.60;99.90
14357;DHT22;7262;48.764;9.166;2023-02-15T12:01:08;12.80;99.90
14357;DHT22;7262;48.764;9.166;2023-02-15T12:03:41;12.50;99.90
14357;DHT22;7262;48.764;9.166;2023-02-15T12:06:12;12.80;99.90
14357;DHT22;7262;48.764;9.166;2023-02-15T12:08:42;13.20;99.90
14357;DHT22;7262;48.764;9.166;2023-02-15T12:11:15;13.00;99.90
14357;DHT22;7262;48.764;9.166;2023-02-15T12:14:04;13.20;99.90
14357;DHT22;7262;48.764;9.166;2023-02-15T12:16:41;12.80;99.90
14357;DHT22;7262;48.764;9.166;2023-02-15T12:19:25;12.80;99.90
14357;DHT22;7262;48.764;9.166;2023-02-15T12:21:53;13.00;99.90
14357;DHT22;7262;48.764;9.166;2023-02-15T12:24:25;13.40;99.90
14357;DHT22;7262;48.764;9.166;2023-02-15T12:26:56;13.40;99.90
14357;DHT22;7262;48.764;9.166;2023-02-15T12:29:26;13.80;99.90
14357;DHT22;7262;48.764;9.166;2023-02-15T12:31:56;13.90;99.90
14357;DHT22;7262;48.764;9.166;2023-02-15T12:34:25;14.00;99.90
14357;DHT22;7262;48.764;9.166;2023-02-15T12:36:53;13.60;99.90
14357;DHT22;7262;48.764;9.166;2023-02-15T12:39:24;13.90;99.90
14357;DHT22;7262;48.764;9.166;2023-02-15T12:41:59;14.40;99.90
14357;DHT22;7262;48.764;9.166;2023-02-15T12:44:29;14.70;99.90
14357;DHT22;7262;48.764;9.166;2023-02-15T12:46:57;15.60;99.90
14357;DHT22;7262;48.764;9.166;2023-02-15T12:49:24;15.70;99.90
14357;DHT22;7262;48.764;9.166;2023-02-15T12:51:52;15.00;99.90
14357;DHT22;7262;48.764;9.166;2023-02-15T12:54:26;14.90;99.90
14357;DHT22;7262;48.764;9.166;2023-02-15T12:56:55;15.50;99.90
14357;DHT22;7262;48.764;9.166;2023-02-15T12:59:23;16.20;99.90
14357;DHT22;7262;48.764;9.166;2023-02-15T13:01:52;16.80;99.90
14357;DHT22;7262;48.764;9.166;2023-02-15T13:04:21;16.60;99.90
14357;DHT22;7262;48.764;9.166;2023-02-15T13:06:49;16.40;99.90
14357;DHT22;7262;48.764;9.166;2023-02-15T13:09:19;16.10;99.90
14357;DHT22;7262;48.764;9.166;2023-02-15T13:11:46;16.70;99.90
14357;DHT22;7262;48.764;9.166;2023-02-15T13:14:18;16.60;99.90
14357;DHT22;7262;48.764;9.166;2023-02-15T13:16:47;15.80;99.90
14357;DHT22;7262;48.764;9.166;2023-02-15T13:19:22;16.10;99.90
14357;DHT22;7262;48.764;9.166;2023-02-15T13:21:52;16.40;99.90
14357;DHT22;7262;48.764;9.166;2023-02-15T13:24:21;16.80;99.90
14357;DHT22;7262;48.764;9.166;2023-02-15T13:26:48;16.60;99.90
14357;DHT22;7262;48.764;9.166;2023-02-15T13:29:17;16.90;99.90
14357;DHT22;7262;48.764;9.166;2023-02-15T13:31:45;16.80;99.90
14357;DHT22;7262;48.764;9.166;2023-02-15T13:34:12;15.20;99.90
14357;DHT22;7262;48.764;9.166;2023-02-15T13:36:54;16.10;99.90
14357;DHT22;7262;48.764;9.166;2023-02-15T13:39:24;17.10;99.90
14357;DHT22;7262;48.764;9.166;2023-02-15T13:41:53;16.40;99.90
14357;DHT22;7262;48.764;9.166;2023-02-15T13:44:25;16.20;99.90
14357;DHT22;7262;48.764;9.166;2023-02-15T13:46:56;16.30;99.90
14357;DHT22;7262;48.764;9.166;2023-02-15T13:49:29;16.50;99.90
14357;DHT22;7262;48.764;9.166;2023-02-15T13:52:04;16.40;99.90
14357;DHT22;7262;48.764;9.166;2023-02-15T13:54:36;17.00;99.90
14357;DHT22;7262;48.764;9.166;2023-02-15T13:57:15;16.80;99.90
14357;DHT22;7262;48.764;9.166;2023-02-15T13:59:45;16.90;99.90
14357;DHT22;7262;48.764;9.166;2023-02-15T14:02:31;17.60;99.90
14357;DHT22;7262;48.764;9.166;2023-02-15T14:07:58;17.70;99.90
14357;DHT22;7262;48.764;9.166;2023-02-15T14:10:34;18.20;99.90
14357;DHT22;7262;48.764;9.166;2023-02-15T14:13:05;18.30;99.90
14357;DHT22;7262;48.764;9.166;2023-02-15T14:15:38;17.80;99.90
14357;DHT22;7262;48.764;9.166;2023-02-15T14:18:17;18.20;99.90
14357;DHT22;7262;48.764;9.166;2023-02-15T14:20:51;18.50;99.90
14357;DHT22;7262;48.764;9.166;2023-02-15T14:23:26;19.40;99.90
14357;DHT22;7262;48.764;9.166;2023-02-15T14:26:04;19.30;99.90
14357;DHT22;7262;48.764;9.166;2023-02-15T14:28:37;19.80;99.90
14357;DHT22;7262;48.764;9.166;2023-02-15T14:31:09;20.30;99.90
14357;DHT22;7262;48.764;9.166;2023-02-15T14:33:37;20.20;99.90
14357;DHT22;7262;48.764;9.166;2023-02-15T14:38:44;19.70;99.90
14357;DHT22;7262;48.764;9.166;2023-02-15T14:41:14;19.80;99.90
14357;DHT22;7262;48.764;9.166;2023-02-15T14:43:46;19.00;99.90
14357;DHT22;7262;48.764;9.166;2023-02-15T14:46:16;18.40;99.90
14357;DHT22;7262;48.764;9.166;2023-02-15T14:48:46;18.10;99.90
14357;DHT22;7262;48.764;9.166;2023-02-15T14:59:42;18.00;99.90
14357;DHT22;7262;48.764;9.166;2023-02-15T15:02:12;17.30;99.90
14357;DHT22;7262;48.764;9.166;2023-02-15T15:04:41;17.50;99.90
14357;DHT22;7262;48.764;9.166;2023-02-15T15:07:14;17.30;99.90
14357;DHT22;7262;48.764;9.166;2023-02-15T15:09:44;16.70;99.90
14357;DHT22;7262;48.764;9.166;2023-02-15T15:12:15;16.60;99.90
14357;DHT22;7262;48.764;9.166;2023-02-15T15:15:03;16.20;99.90
14357;DHT22;7262;48.764;9.166;2023-02-15T15:25:48;16.20;99.90
14357;DHT22;7262;48.764;9.166;2023-02-15T15:31:15;16.60;99.90
14357;DHT22;7262;48.764;9.166;2023-02-15T15:33:57;16.90;99.90
14357;DHT22;7262;48.764;9.166;2023-02-15T15:39:32;16.60;99.90
14357;DHT22;7262;48.764;9.166;2023-02-15T15:42:12;15.50;99.90
14357;DHT22;7262;48.764;9.166;2023-02-15T15:44:54;14.40;99.90
14357;DHT22;7262;48.764;9.166;2023-02-15T15:47:34;13.30;99.90
14357;DHT22;7262;48.764;9.166;2023-02-15T15:50:14;12.40;99.90
14357;DHT22;7262;48.764;9.166;2023-02-15T15:52:57;11.80;99.90
14357;DHT22;7262;48.764;9.166;2023-02-15T15:55:25;11.30;99.90
14357;DHT22;7262;48.764;9.166;2023-02-15T15:57:59;10.90;99.90
14357;DHT22;7262;48.764;9.166;2023-02-15T16:00:33;10.60;99.90
14357;DHT22;7262;48.764;9.166;2023-02-15T16:03:12;10.30;99.90
14357;DHT22;7262;48.764;9.166;2023-02-15T16:05:39;10.10;99.90
14357;DHT22;7262;48.764;9.166;2023-02-15T16:08:07;9.90;99.90
14357;DHT22;7262;48.764;9.166;2023-02-15T16:10:34;9.70;99.90
14357;DHT22;7262;48.764;9.166;2023-02-15T16:13:04;9.50;99.90
14357;DHT22;7262;48.764;9.166;2023-02-15T16:15:34;9.50;99.90
14357;DHT22;7262;48.764;9.166;2023-02-15T16:18:04;9.20;99.90
14357;DHT22;7262;48.764;9.166;2023-02-15T16:20:39;9.00;99.90
14357;DHT22;7262;48.764;9.166;2023-02-15T16:23:28;8.80;99.90
14357;DHT22;7262;48.764;9.166;2023-02-15T16:25:58;8.50;99.90
14357;DHT22;7262;48.764;9.166;2023-02-15T16:28:30;8.30;99.90
14357;DHT22;7262;48.764;9.166;2023-02-15T16:31:04;8.10;99.90
14357;DHT22;7262;48.764;9.166;2023-02-15T16:33:35;8.00;99.90
14357;DHT22;7262;48.764;9.166;2023-02-15T16:36:04;7.90;99.90
14357;DHT22;7262;48.764;9.166;2023-02-15T16:38:58;7.80;99.90
14357;DHT22;7262;48.764;9.166;2023-02-15T16:41:33;7.90;99.90
14357;DHT22;7262;48.764;9.166;2023-02-15T16:44:02;7.80;99.90
14357;DHT22;7262;48.764;9.166;2023-02-15T16:46:31;7.80;99.90
14357;DHT22;7262;48.764;9.166;2023-02-15T16:48:59;7.60;99.90
14357;DHT22;7262;48.764;9.166;2023-02-15T16:51:28;7.60;99.90
14357;DHT22;7262;48.764;9.166;2023-02-15T16:54:00;7.60;99.90
14357;DHT22;7262;48.764;9.166;2023-02-15T16:56:30;7.50;99.90
14357;DHT22;7262;48.764;9.166;2023-02-15T16:58:57;7.40;99.90
14357;DHT22;7262;48.764;9.166;2023-02-15T17:01:33;7.30;99.90
14357;DHT22;7262;48.764;9.166;2023-02-15T17:04:10;7.30;99.90
14357;DHT22;7262;48.764;9.166;2023-02-15T17:06:39;7.20;99.90
14357;DHT22;7262;48.764;9.166;2023-02-15T17:09:12;7.10;99.90
14357;DHT22;7262;48.764;9.166;2023-02-15T17:11:40;7.00;99.90
14357;DHT22;7262;48.764;9.166;2023-02-15T17:14:11;6.90;99.90
14357;DHT22;7262;48.764;9.166;2023-02-15T17:16:41;6.80;99.90
14357;DHT22;7262;48.764;9.166;2023-02-15T17:19:09;6.70;99.90
14357;DHT22;7262;48.764;9.166;2023-02-15T17:21:42;6.50;99.90
14357;DHT22;7262;48.764;9.166;2023-02-15T17:24:13;6.50;99.90
14357;DHT22;7262;48.764;9.166;2023-02-15T17:26:41;6.40;99.90
14357;DHT22;7262;48.764;9.166;2023-02-15T17:29:10;6.40;99.90
14357;DHT22;7262;48.764;9.166;2023-02-15T17:31:38;6.30;99.90